Time;durP1;ratioP1;P1;durP2;ratioP2;P2;SDS_P1;SDS_P2;PMS_P1;PMS_P2;Temp;Humidity;BMP_temperature;BMP_pressure;BME280_temperature;BME280_humidity;BME280_pressure;Samples;Min_cycle;Max_cycle;Signal;HPM_P1;HPM_P2
2021/12/27 00:00:23;;;;;;;22.35;13.10;;;;;;;;;;5093504;28;20507;-65
2021/12/27 00:02:52;;;;;;;22.25;13.15;;;;;;;;;;5093021;28;20114;-65
2021/12/27 00:05:18;;;;;;;24.48;13.23;;;;;;;;;;5092913;28;20105;-65
2021/12/27 00:07:48;;;;;;;19.55;11.93;;;;;;;;;;5092012;28;20048;-65
2021/12/27 00:10:14;;;;;;;22.67;13.25;;;;;;;;;;5090086;28;20115;-64
2021/12/27 00:12:40;;;;;;;20.80;12.82;;;;;;;;;;5076902;28;20500;-64
2021/12/27 00:15:06;;;;;;;22.27;13.10;;;;;;;;;;5092576;28;20076;-64
2021/12/27 00:17:32;;;;;;;21.25;12.60;;;;;;;;;;5093169;28;20122;-64
2021/12/27 00:19:59;;;;;;;21.92;13.45;;;;;;;;;;5092994;28;20036;-64
2021/12/27 00:22:25;;;;;;;22.50;13.05;;;;;;;;;;5093436;28;20052;-65
2021/12/27 00:24:51;;;;;;;23.73;13.40;;;;;;;;;;5093406;28;20048;-64
2021/12/27 00:27:18;;;;;;;21.10;13.07;;;;;;;;;;5093029;28;20051;-64
2021/12/27 00:29:44;;;;;;;21.85;12.90;;;;;;;;;;5096324;28;20492;-65
2021/12/27 00:32:10;;;;;;;21.48;13.23;;;;;;;;;;5096203;28;20049;-66
2021/12/27 00:34:36;;;;;;;23.15;13.18;;;;;;;;;;5114647;28;20047;-64
2021/12/27 00:37:04;;;;;;;22.98;12.93;;;;;;;;;;5113824;28;20143;-64
2021/12/27 00:39:30;;;;;;;24.40;13.05;;;;;;;;;;5094520;28;20085;-64
2021/12/27 00:41:56;;;;;;;20.92;12.88;;;;;;;;;;5091419;28;20054;-64
2021/12/27 00:44:22;;;;;;;25.70;14.13;;;;;;;;;;5095551;28;20050;-64
2021/12/27 00:46:48;;;;;;;22.80;13.07;;;;;;;;;;5114720;27;20044;-64
2021/12/27 00:49:14;;;;;;;21.27;13.05;;;;;;;;;;5115001;27;20491;-64
2021/12/27 00:51:40;;;;;;;25.00;12.95;;;;;;;;;;5095742;28;20457;-64
2021/12/27 00:54:06;;;;;;;24.20;13.05;;;;;;;;;;5094368;28;20043;-65
2021/12/27 00:56:32;;;;;;;21.83;13.13;;;;;;;;;;5094511;28;20600;-64
2021/12/27 00:58:58;;;;;;;22.25;12.93;;;;;;;;;;5097129;28;20031;-64
2021/12/27 01:01:24;;;;;;;24.30;13.43;;;;;;;;;;5096906;28;20109;-65
2021/12/27 01:03:50;;;;;;;22.48;12.88;;;;;;;;;;5114187;27;20104;-64
2021/12/27 01:06:16;;;;;;;24.05;13.23;;;;;;;;;;5091415;28;20075;-64
2021/12/27 01:08:42;;;;;;;22.00;13.50;;;;;;;;;;5125613;27;20047;-64
2021/12/27 01:11:38;;;;;;;23.80;14.18;;;;;;;;;;5093745;28;20043;-64
2021/12/27 01:14:14;;;;;;;21.23;12.68;;;;;;;;;;5106917;27;20043;-64
2021/12/27 01:16:41;;;;;;;23.27;13.25;;;;;;;;;;5077865;28;20043;-64
2021/12/27 01:19:08;;;;;;;22.88;13.20;;;;;;;;;;5093614;28;20554;-64
2021/12/27 01:21:34;;;;;;;23.80;13.68;;;;;;;;;;5093387;28;20511;-64
2021/12/27 01:24:01;;;;;;;22.58;14.05;;;;;;;;;;5093599;28;20589;-64
2021/12/27 01:26:27;;;;;;;21.83;12.50;;;;;;;;;;5094743;28;20104;-64
2021/12/27 01:28:54;;;;;;;22.05;13.15;;;;;;;;;;5113708;28;20159;-64
2021/12/27 01:31:20;;;;;;;22.80;13.45;;;;;;;;;;5095252;28;20058;-64
2021/12/27 01:33:46;;;;;;;21.75;12.65;;;;;;;;;;5094664;28;20043;-64
2021/12/27 01:36:13;;;;;;;24.20;14.25;;;;;;;;;;5112726;28;20044;-65
2021/12/27 01:38:40;;;;;;;24.50;13.65;;;;;;;;;;5111926;28;20035;-64
2021/12/27 01:41:07;;;;;;;24.45;14.45;;;;;;;;;;5094620;28;20044;-64
2021/12/27 01:43:35;;;;;;;23.42;14.10;;;;;;;;;;5094789;28;20526;-64
2021/12/27 01:46:12;;;;;;;21.38;13.20;;;;;;;;;;5091736;27;20135;-64
2021/12/27 01:48:40;;;;;;;21.48;13.15;;;;;;;;;;5107756;28;20066;-64
2021/12/27 01:51:07;;;;;;;24.00;13.75;;;;;;;;;;5090611;28;20180;-65
2021/12/27 01:53:35;;;;;;;25.92;15.18;;;;;;;;;;5076932;28;20040;-64
2021/12/27 01:56:02;;;;;;;20.67;12.93;;;;;;;;;;5095100;28;20092;-64
2021/12/27 01:58:29;;;;;;;24.88;13.65;;;;;;;;;;5094863;28;20047;-64
2021/12/27 02:00:57;;;;;;;25.35;14.77;;;;;;;;;;5077096;28;20065;-64
2021/12/27 02:03:25;;;;;;;24.42;13.77;;;;;;;;;;5094731;28;20044;-64
2021/12/27 02:05:51;;;;;;;25.50;14.65;;;;;;;;;;5094454;28;20052;-64
2021/12/27 02:08:17;;;;;;;23.77;13.70;;;;;;;;;;5127621;27;20122;-64
2021/12/27 02:10:44;;;;;;;23.00;14.07;;;;;;;;;;5094022;28;20054;-64
2021/12/27 02:13:10;;;;;;;25.65;14.52;;;;;;;;;;5090571;28;20054;-64
2021/12/27 02:15:36;;;;;;;28.35;16.02;;;;;;;;;;5091206;28;20043;-64
2021/12/27 02:18:03;;;;;;;23.92;15.13;;;;;;;;;;5111243;27;20043;-64
2021/12/27 02:20:31;;;;;;;25.55;15.15;;;;;;;;;;5108474;28;20039;-64
2021/12/27 02:23:01;;;;;;;30.35;15.95;;;;;;;;;;5094484;28;20483;-64
2021/12/27 02:25:31;;;;;;;27.30;15.85;;;;;;;;;;5094810;28;20046;-64
2021/12/27 02:27:58;;;;;;;26.75;15.48;;;;;;;;;;5093854;28;20118;-64
2021/12/27 02:30:24;;;;;;;25.50;14.52;;;;;;;;;;5093452;28;20055;-64
2021/12/27 02:32:55;;;;;;;25.83;14.85;;;;;;;;;;5113191;28;20399;-64
2021/12/27 02:35:26;;;;;;;28.45;16.40;;;;;;;;;;5088483;28;20636;-64
2021/12/27 02:37:53;;;;;;;25.42;15.05;;;;;;;;;;5107618;28;20328;-64
2021/12/27 02:40:20;;;;;;;24.40;14.80;;;;;;;;;;5115811;27;20083;-64
2021/12/27 02:42:58;;;;;;;30.75;16.30;;;;;;;;;;5113235;27;20181;-64
2021/12/27 02:45:25;;;;;;;29.60;16.95;;;;;;;;;;5092893;28;20039;-64
2021/12/27 02:47:51;;;;;;;31.13;17.15;;;;;;;;;;5092964;28;20036;-64
2021/12/27 02:50:18;;;;;;;30.52;17.08;;;;;;;;;;5111450;28;20040;-64
2021/12/27 02:52:44;;;;;;;26.70;16.10;;;;;;;;;;5112905;28;20112;-64
2021/12/27 02:55:12;;;;;;;30.00;16.45;;;;;;;;;;5093786;28;20323;-64
2021/12/27 02:57:38;;;;;;;27.90;15.77;;;;;;;;;;5093558;28;20435;-64
2021/12/27 03:00:05;;;;;;;30.05;15.70;;;;;;;;;;5093429;28;20612;-64
2021/12/27 03:02:31;;;;;;;29.35;17.20;;;;;;;;;;5092515;28;20046;-64
2021/12/27 03:04:57;;;;;;;27.42;16.13;;;;;;;;;;5109705;27;20047;-64
2021/12/27 03:07:23;;;;;;;28.55;15.85;;;;;;;;;;5091756;28;20035;-65
2021/12/27 03:09:49;;;;;;;27.65;15.63;;;;;;;;;;5091092;28;20039;-64
2021/12/27 03:12:15;;;;;;;26.83;15.77;;;;;;;;;;5091749;28;20391;-64
2021/12/27 03:14:41;;;;;;;30.08;16.13;;;;;;;;;;5091766;28;20510;-64
2021/12/27 03:17:07;;;;;;;30.45;16.80;;;;;;;;;;5089120;28;20123;-65
2021/12/27 03:19:33;;;;;;;28.48;15.55;;;;;;;;;;5089664;28;20146;-64
2021/12/27 03:21:59;;;;;;;27.80;16.92;;;;;;;;;;5106037;27;20138;-64
2021/12/27 03:24:25;;;;;;;30.13;16.73;;;;;;;;;;5091606;28;20040;-64
2021/12/27 03:26:51;;;;;;;30.10;16.77;;;;;;;;;;5110056;28;20414;-64
2021/12/27 03:29:17;;;;;;;24.15;14.80;;;;;;;;;;5069220;28;20152;-64
2021/12/27 03:31:43;;;;;;;27.40;15.32;;;;;;;;;;5105259;28;20475;-64
2021/12/27 03:34:09;;;;;;;29.98;16.55;;;;;;;;;;5091355;28;20121;-65
2021/12/27 03:36:40;;;;;;;27.52;16.35;;;;;;;;;;5109969;28;20040;-64
2021/12/27 03:39:10;;;;;;;31.73;16.70;;;;;;;;;;5072906;28;20035;-64
2021/12/27 03:41:36;;;;;;;31.45;16.63;;;;;;;;;;5092154;28;20520;-64
2021/12/27 03:44:03;;;;;;;32.08;18.30;;;;;;;;;;5091722;28;20036;-64
2021/12/27 03:46:29;;;;;;;27.27;16.50;;;;;;;;;;5092037;28;20104;-64
2021/12/27 03:48:56;;;;;;;28.52;16.73;;;;;;;;;;5109341;28;20099;-64
2021/12/27 03:51:22;;;;;;;31.25;17.08;;;;;;;;;;5110342;28;20115;-64
2021/12/27 03:53:49;;;;;;;29.35;17.58;;;;;;;;;;5087409;28;20120;-64
2021/12/27 03:56:15;;;;;;;29.15;16.08;;;;;;;;;;5091574;28;20042;-64
2021/12/27 03:58:55;;;;;;;32.92;17.38;;;;;;;;;;5108887;28;20050;-64
2021/12/27 04:01:21;;;;;;;27.00;16.00;;;;;;;;;;5081274;28;20043;-65
2021/12/27 04:03:56;;;;;;;28.08;16.30;;;;;;;;;;5093105;28;20047;-64
2021/12/27 04:06:23;;;;;;;27.73;16.45;;;;;;;;;;5088055;28;20067;-64
2021/12/27 04:08:49;;;;;;;28.75;16.75;;;;;;;;;;5110386;28;20040;-64
2021/12/27 04:11:15;;;;;;;31.42;15.82;;;;;;;;;;5089385;28;20483;-64
2021/12/27 04:13:41;;;;;;;30.10;17.30;;;;;;;;;;5085243;28;20036;-64
2021/12/27 04:16:07;;;;;;;26.02;15.52;;;;;;;;;;5088225;28;20047;-64
2021/12/27 04:18:33;;;;;;;25.00;15.00;;;;;;;;;;5092216;28;20071;-64
2021/12/27 04:20:59;;;;;;;27.95;16.50;;;;;;;;;;5091466;28;20039;-65
2021/12/27 04:23:25;;;;;;;28.77;16.92;;;;;;;;;;5111336;28;20050;-64
2021/12/27 04:25:51;;;;;;;27.15;16.42;;;;;;;;;;5089172;28;20051;-64
2021/12/27 04:28:19;;;;;;;28.02;16.60;;;;;;;;;;5093383;28;20043;-64
2021/12/27 04:30:45;;;;;;;27.15;16.10;;;;;;;;;;5092014;28;20532;-64
2021/12/27 04:33:12;;;;;;;27.55;16.83;;;;;;;;;;5092635;28;20044;-64
2021/12/27 04:35:38;;;;;;;30.30;17.02;;;;;;;;;;5110186;28;20050;-64
2021/12/27 04:38:04;;;;;;;32.47;16.92;;;;;;;;;;5091544;28;20058;-64
2021/12/27 04:40:31;;;;;;;30.52;18.05;;;;;;;;;;5108732;28;20047;-64
2021/12/27 04:43:05;;;;;;;28.55;17.23;;;;;;;;;;5095173;28;20062;-64
2021/12/27 04:45:31;;;;;;;33.55;17.40;;;;;;;;;;5093372;28;20063;-64
2021/12/27 04:47:57;;;;;;;29.10;17.58;;;;;;;;;;5096737;28;20115;-64
2021/12/27 04:50:25;;;;;;;30.52;17.48;;;;;;;;;;5094044;28;20047;-64
2021/12/27 04:52:53;;;;;;;30.55;16.60;;;;;;;;;;5102604;28;20036;-64
2021/12/27 04:55:21;;;;;;;29.05;16.63;;;;;;;;;;5111126;27;20058;-64
2021/12/27 04:57:47;;;;;;;34.03;17.20;;;;;;;;;;5094965;28;20437;-64
2021/12/27 05:00:13;;;;;;;27.98;16.48;;;;;;;;;;5113265;28;20035;-65
2021/12/27 05:02:39;;;;;;;26.33;16.58;;;;;;;;;;5096442;28;20067;-64
2021/12/27 05:05:05;;;;;;;34.15;18.55;;;;;;;;;;5094204;28;20101;-65
2021/12/27 05:07:31;;;;;;;32.03;17.20;;;;;;;;;;5113223;27;20035;-65
2021/12/27 05:09:57;;;;;;;32.65;18.20;;;;;;;;;;5130685;27;20471;-64
2021/12/27 05:12:24;;;;;;;29.65;17.08;;;;;;;;;;5095557;28;20081;-64
2021/12/27 05:14:50;;;;;;;30.42;16.83;;;;;;;;;;5115398;28;20383;-64
2021/12/27 05:17:16;;;;;;;30.58;16.92;;;;;;;;;;5096749;28;20147;-64
2021/12/27 05:19:42;;;;;;;33.17;18.40;;;;;;;;;;5114339;27;20038;-65
2021/12/27 05:22:08;;;;;;;26.15;16.58;;;;;;;;;;5096252;28;20399;-64
2021/12/27 05:24:34;;;;;;;28.02;17.33;;;;;;;;;;5114856;28;20096;-64
2021/12/27 05:27:00;;;;;;;29.88;17.65;;;;;;;;;;5114691;27;20039;-65
2021/12/27 05:29:26;;;;;;;35.90;18.80;;;;;;;;;;5096011;28;20040;-65
2021/12/27 05:31:52;;;;;;;29.25;17.50;;;;;;;;;;5095285;28;20055;-65
2021/12/27 05:34:18;;;;;;;36.22;19.17;;;;;;;;;;5096302;28;20074;-66
2021/12/27 05:36:45;;;;;;;32.28;18.42;;;;;;;;;;5095353;28;20043;-65
2021/12/27 05:39:13;;;;;;;30.50;17.83;;;;;;;;;;5112569;27;20047;-65
2021/12/27 05:41:39;;;;;;;34.83;19.55;;;;;;;;;;5095667;27;20063;-65
2021/12/27 05:44:05;;;;;;;36.63;18.90;;;;;;;;;;5114745;28;20093;-65
2021/12/27 05:46:31;;;;;;;32.72;18.35;;;;;;;;;;5113930;28;20040;-65
2021/12/27 05:48:57;;;;;;;33.50;19.17;;;;;;;;;;5093872;28;20032;-65
2021/12/27 05:51:23;;;;;;;34.92;18.50;;;;;;;;;;5090858;28;20063;-65
2021/12/27 05:53:49;;;;;;;36.10;19.23;;;;;;;;;;5094226;28;20039;-65
2021/12/27 05:56:15;;;;;;;38.60;18.88;;;;;;;;;;5113577;28;20127;-65
2021/12/27 05:58:41;;;;;;;36.75;18.98;;;;;;;;;;5095057;27;20047;-65
2021/12/27 06:01:07;;;;;;;33.47;19.38;;;;;;;;;;5094379;28;20062;-65
2021/12/27 06:03:33;;;;;;;33.90;19.02;;;;;;;;;;5093960;28;20085;-65
2021/12/27 06:06:00;;;;;;;42.92;21.38;;;;;;;;;;5099740;28;20035;-65
2021/12/27 06:08:26;;;;;;;38.63;20.20;;;;;;;;;;5093831;28;20043;-65
2021/12/27 06:10:52;;;;;;;37.70;18.83;;;;;;;;;;5100001;28;20220;-65
2021/12/27 06:13:18;;;;;;;38.75;19.77;;;;;;;;;;5113930;27;20035;-65
2021/12/27 06:15:44;;;;;;;31.95;19.65;;;;;;;;;;5097551;28;20050;-65
2021/12/27 06:18:10;;;;;;;44.25;20.25;;;;;;;;;;5094137;28;20061;-65
2021/12/27 06:20:36;;;;;;;39.58;19.25;;;;;;;;;;5113741;27;21821;-65
2021/12/27 06:23:02;;;;;;;45.42;20.25;;;;;;;;;;5111734;28;20112;-65
2021/12/27 06:25:28;;;;;;;47.45;21.25;;;;;;;;;;5094125;28;20039;-65
2021/12/27 06:27:55;;;;;;;47.03;20.85;;;;;;;;;;5093739;28;20050;-65
2021/12/27 06:30:21;;;;;;;46.55;19.70;;;;;;;;;;5091032;28;20052;-65
2021/12/27 06:32:47;;;;;;;35.92;18.45;;;;;;;;;;5092756;28;20036;-65
2021/12/27 06:35:14;;;;;;;52.67;22.10;;;;;;;;;;5091094;28;20476;-65
2021/12/27 06:37:41;;;;;;;48.50;21.33;;;;;;;;;;5091993;28;20147;-65
2021/12/27 06:40:08;;;;;;;43.42;20.85;;;;;;;;;;5090423;28;20122;-65
2021/12/27 06:42:34;;;;;;;52.13;21.25;;;;;;;;;;5091542;28;20056;-65
2021/12/27 06:45:00;;;;;;;49.80;20.88;;;;;;;;;;5091184;28;20500;-65
2021/12/27 06:47:26;;;;;;;56.13;20.98;;;;;;;;;;5091154;28;20067;-65
2021/12/27 06:49:53;;;;;;;49.47;21.23;;;;;;;;;;5091832;28;20054;-65
2021/12/27 06:52:19;;;;;;;62.17;22.27;;;;;;;;;;5068424;28;20040;-65
2021/12/27 06:54:45;;;;;;;56.25;22.42;;;;;;;;;;5090867;28;20044;-65
2021/12/27 06:57:11;;;;;;;53.63;19.75;;;;;;;;;;5092547;28;20480;-65
2021/12/27 06:59:37;;;;;;;60.72;20.30;;;;;;;;;;5088637;28;20036;-65
2021/12/27 07:02:04;;;;;;;70.68;23.42;;;;;;;;;;5092273;28;20081;-65
2021/12/27 07:04:31;;;;;;;88.18;25.13;;;;;;;;;;5091720;28;20044;-65
2021/12/27 07:06:57;;;;;;;59.00;21.63;;;;;;;;;;5090982;28;20043;-65
2021/12/27 07:09:23;;;;;;;61.15;21.80;;;;;;;;;;5090663;28;20072;-65
2021/12/27 07:11:49;;;;;;;58.35;21.42;;;;;;;;;;5090132;28;20044;-65
2021/12/27 07:14:15;;;;;;;85.93;25.08;;;;;;;;;;5073411;28;20127;-65
2021/12/27 07:16:41;;;;;;;70.50;23.85;;;;;;;;;;5092132;28;20071;-65
2021/12/27 07:19:07;;;;;;;59.90;22.70;;;;;;;;;;5088301;28;20044;-65
2021/12/27 07:21:33;;;;;;;67.90;24.02;;;;;;;;;;5097162;28;20039;-65
2021/12/27 07:24:00;;;;;;;74.57;23.55;;;;;;;;;;5087935;28;20097;-65
2021/12/27 07:26:26;;;;;;;65.18;23.05;;;;;;;;;;5088551;28;20058;-65
2021/12/27 07:28:52;;;;;;;56.90;21.55;;;;;;;;;;5083489;28;20076;-65
2021/12/27 07:31:18;;;;;;;73.63;23.75;;;;;;;;;;5071897;28;20083;-65
2021/12/27 07:33:44;;;;;;;83.47;23.90;;;;;;;;;;5091131;28;20444;-65
2021/12/27 07:36:11;;;;;;;69.60;23.33;;;;;;;;;;5090330;28;20153;-65
2021/12/27 07:38:38;;;;;;;75.28;22.45;;;;;;;;;;5089889;28;20044;-65
2021/12/27 07:41:04;;;;;;;61.22;20.95;;;;;;;;;;5095861;28;20180;-65
2021/12/27 07:43:30;;;;;;;78.10;23.45;;;;;;;;;;5088168;28;20138;-65
2021/12/27 07:45:56;;;;;;;65.35;22.20;;;;;;;;;;5090895;28;20131;-65
2021/12/27 07:48:22;;;;;;;56.58;20.30;;;;;;;;;;5088828;28;20130;-66
2021/12/27 07:50:49;;;;;;;58.10;22.80;;;;;;;;;;5091628;28;20036;-64
2021/12/27 07:53:15;;;;;;;55.75;20.30;;;;;;;;;;5090360;28;20093;-65
2021/12/27 07:55:41;;;;;;;68.60;21.25;;;;;;;;;;5084843;28;20052;-66
2021/12/27 07:58:07;;;;;;;62.05;21.58;;;;;;;;;;5067083;28;20047;-65
2021/12/27 08:00:33;;;;;;;70.15;22.05;;;;;;;;;;5088642;28;20492;-66
2021/12/27 08:02:59;;;;;;;64.80;21.80;;;;;;;;;;5073228;28;20051;-63
2021/12/27 08:05:26;;;;;;;60.47;21.38;;;;;;;;;;5090132;28;20041;-65
2021/12/27 08:07:52;;;;;;;65.63;21.13;;;;;;;;;;5086891;28;20035;-64
2021/12/27 08:10:19;;;;;;;72.50;22.85;;;;;;;;;;5084585;28;20047;-64
2021/12/27 08:12:45;;;;;;;66.53;20.60;;;;;;;;;;5085464;28;20039;-64
2021/12/27 08:15:11;;;;;;;66.20;21.08;;;;;;;;;;5090586;28;20075;-64
2021/12/27 08:17:38;;;;;;;69.30;21.42;;;;;;;;;;5089370;28;20039;-64
2021/12/27 08:20:05;;;;;;;70.55;22.65;;;;;;;;;;5092511;28;20437;-64
2021/12/27 08:22:31;;;;;;;55.95;19.58;;;;;;;;;;5094012;28;20044;-64
2021/12/27 08:24:57;;;;;;;63.15;20.50;;;;;;;;;;5072309;28;20502;-64
2021/12/27 08:27:25;;;;;;;62.42;21.83;;;;;;;;;;5092941;28;20434;-64
2021/12/27 08:29:51;;;;;;;56.70;20.00;;;;;;;;;;5095631;28;20480;-65
2021/12/27 08:32:18;;;;;;;69.70;22.75;;;;;;;;;;5097597;28;20075;-64
2021/12/27 08:34:44;;;;;;;58.17;21.42;;;;;;;;;;5095121;28;20100;-65
2021/12/27 08:37:10;;;;;;;62.28;21.23;;;;;;;;;;5094791;28;20090;-64
2021/12/27 08:39:38;;;;;;;79.90;21.63;;;;;;;;;;5089613;28;20069;-66
2021/12/27 08:42:07;;;;;;;74.55;21.52;;;;;;;;;;5097575;28;20084;-66
2021/12/27 08:44:33;;;;;;;93.47;22.42;;;;;;;;;;5096699;28;20124;-65
2021/12/27 08:46:59;;;;;;;89.70;21.42;;;;;;;;;;5114011;28;20028;-65
2021/12/27 08:49:25;;;;;;;85.50;22.67;;;;;;;;;;5095074;28;20036;-65
2021/12/27 08:51:52;;;;;;;75.97;21.00;;;;;;;;;;5096823;28;20038;-65
2021/12/27 08:54:18;;;;;;;83.90;21.55;;;;;;;;;;5094823;28;20031;-65
2021/12/27 08:56:44;;;;;;;92.20;23.17;;;;;;;;;;5092302;27;20050;-65
2021/12/27 08:59:10;;;;;;;87.25;22.52;;;;;;;;;;5092184;28;20075;-66
2021/12/27 09:01:36;;;;;;;102.20;24.05;;;;;;;;;;5096656;28;20121;-66
2021/12/27 09:04:04;;;;;;;126.38;25.85;;;;;;;;;;5115324;27;20027;-65
2021/12/27 09:06:30;;;;;;;99.65;24.90;;;;;;;;;;5096648;28;20124;-65
2021/12/27 09:08:56;;;;;;;104.57;24.55;;;;;;;;;;5111345;27;20027;-65
2021/12/27 09:11:23;;;;;;;130.88;27.52;;;;;;;;;;5089091;28;20044;-65
2021/12/27 09:13:49;;;;;;;88.35;22.70;;;;;;;;;;5113934;28;20074;-65
2021/12/27 09:16:15;;;;;;;156.65;28.80;;;;;;;;;;5093475;28;20048;-65
2021/12/27 09:18:41;;;;;;;99.70;24.70;;;;;;;;;;5095783;28;20044;-65
2021/12/27 09:21:07;;;;;;;114.10;23.38;;;;;;;;;;5092855;28;20036;-66
2021/12/27 09:23:33;;;;;;;94.38;24.10;;;;;;;;;;5092977;28;20039;-65
2021/12/27 09:25:59;;;;;;;85.32;22.27;;;;;;;;;;5113624;28;20649;-65
2021/12/27 09:28:25;;;;;;;121.60;26.05;;;;;;;;;;5096180;28;20039;-66
2021/12/27 09:30:51;;;;;;;87.50;23.45;;;;;;;;;;5097879;28;20112;-65
2021/12/27 09:33:17;;;;;;;96.40;25.00;;;;;;;;;;5112915;28;20123;-65
2021/12/27 09:35:44;;;;;;;81.22;23.48;;;;;;;;;;5093428;28;20130;-65
2021/12/27 09:38:11;;;;;;;136.73;25.30;;;;;;;;;;5090817;28;20540;-66
2021/12/27 09:40:38;;;;;;;105.13;24.48;;;;;;;;;;5126915;27;20118;-66
2021/12/27 09:43:04;;;;;;;95.18;25.33;;;;;;;;;;5095390;28;20044;-65
2021/12/27 09:45:30;;;;;;;88.38;23.75;;;;;;;;;;5092530;28;20039;-66
2021/12/27 09:47:56;;;;;;;97.18;24.65;;;;;;;;;;5091383;28;20096;-65
2021/12/27 09:50:33;;;;;;;110.40;25.65;;;;;;;;;;5112869;28;20032;-66
2021/12/27 09:52:59;;;;;;;110.45;25.05;;;;;;;;;;5094710;28;20499;-65
2021/12/27 09:55:27;;;;;;;126.32;26.83;;;;;;;;;;5112099;28;20407;-65
2021/12/27 09:57:54;;;;;;;101.55;23.00;;;;;;;;;;5110231;28;20494;-65
2021/12/27 10:00:20;;;;;;;124.28;24.88;;;;;;;;;;5092556;28;20075;-65
2021/12/27 10:02:49;;;;;;;103.50;24.90;;;;;;;;;;5094346;28;20401;-65
2021/12/27 10:05:15;;;;;;;161.48;26.23;;;;;;;;;;5093093;28;20047;-66
2021/12/27 10:07:41;;;;;;;140.80;27.40;;;;;;;;;;5094047;28;20377;-65
2021/12/27 10:10:09;;;;;;;152.88;27.98;;;;;;;;;;5112238;28;20398;-65
2021/12/27 10:12:35;;;;;;;78.85;24.73;;;;;;;;;;5093848;28;20079;-65
2021/12/27 10:15:03;;;;;;;115.65;26.35;;;;;;;;;;5111817;27;20042;-66
2021/12/27 10:17:34;;;;;;;65.15;23.48;;;;;;;;;;5101020;28;20059;-65
2021/12/27 10:20:20;;;;;;;120.68;26.20;;;;;;;;;;5125971;27;20063;-65
2021/12/27 10:22:51;;;;;;;102.15;24.65;;;;;;;;;;5090259;28;20048;-65
2021/12/27 10:25:21;;;;;;;79.38;23.70;;;;;;;;;;5109408;28;20042;-65
2021/12/27 10:27:48;;;;;;;81.45;23.83;;;;;;;;;;5092871;28;20047;-65
2021/12/27 10:30:19;;;;;;;80.78;23.63;;;;;;;;;;5087593;28;20051;-66
2021/12/27 10:33:01;;;;;;;93.60;23.27;;;;;;;;;;5092120;27;20066;-65
2021/12/27 10:35:57;;;;;;;93.68;23.63;;;;;;;;;;5094035;28;20070;-65
2021/12/27 10:38:23;;;;;;;124.22;26.00;;;;;;;;;;5072573;28;20475;-65
2021/12/27 10:41:03;;;;;;;87.15;24.35;;;;;;;;;;5093800;28;20051;-65
2021/12/27 10:43:56;;;;;;;110.43;25.15;;;;;;;;;;5089358;28;20134;-66
2021/12/27 10:46:22;;;;;;;145.27;28.83;;;;;;;;;;5091616;28;20043;-65
2021/12/27 10:48:59;;;;;;;95.30;23.75;;;;;;;;;;5083888;28;20147;-65
2021/12/27 10:51:26;;;;;;;156.48;28.45;;;;;;;;;;5090926;28;20051;-66
2021/12/27 10:53:54;;;;;;;110.82;23.98;;;;;;;;;;5087118;28;20149;-65
2021/12/27 10:56:22;;;;;;;110.78;24.48;;;;;;;;;;5083185;28;20051;-65
2021/12/27 10:58:50;;;;;;;152.52;27.88;;;;;;;;;;5096590;28;20048;-66
2021/12/27 11:01:19;;;;;;;119.55;25.77;;;;;;;;;;5093024;28;20051;-65
2021/12/27 11:03:47;;;;;;;129.20;27.45;;;;;;;;;;5071956;28;20059;-65
2021/12/27 11:06:14;;;;;;;157.10;26.27;;;;;;;;;;5085084;27;20043;-65
2021/12/27 11:08:47;;;;;;;134.93;25.58;;;;;;;;;;5101740;27;20066;-65
2021/12/27 11:11:14;;;;;;;132.88;27.30;;;;;;;;;;5064462;28;20027;-65
2021/12/27 11:13:41;;;;;;;115.88;25.65;;;;;;;;;;5120690;27;20048;-65
2021/12/27 11:16:07;;;;;;;111.85;25.80;;;;;;;;;;5109818;28;21508;-66
2021/12/27 11:18:34;;;;;;;121.38;28.90;;;;;;;;;;5109470;28;20262;-65
2021/12/27 11:21:20;;;;;;;129.48;29.63;;;;;;;;;;5099788;28;20396;-65
2021/12/27 11:23:50;;;;;;;132.27;29.48;;;;;;;;;;5088479;27;20055;-65
2021/12/27 11:26:21;;;;;;;102.13;28.70;;;;;;;;;;5092769;28;20480;-65
2021/12/27 11:28:49;;;;;;;208.13;33.60;;;;;;;;;;5124406;27;20043;-65
2021/12/27 11:31:15;;;;;;;87.88;25.92;;;;;;;;;;5106743;28;20407;-65
2021/12/27 11:33:54;;;;;;;265.98;37.08;;;;;;;;;;5092552;28;20051;-65
2021/12/27 11:36:21;;;;;;;187.77;30.17;;;;;;;;;;5075331;28;20439;-65
2021/12/27 11:38:48;;;;;;;139.05;29.77;;;;;;;;;;5092042;28;20047;-65
2021/12/27 11:41:33;;;;;;;139.32;28.40;;;;;;;;;;5083464;28;20043;-65
2021/12/27 11:44:05;;;;;;;146.73;29.95;;;;;;;;;;5089441;28;20032;-65
2021/12/27 11:46:51;;;;;;;120.90;28.83;;;;;;;;;;5107023;28;20055;-65
2021/12/27 11:49:32;;;;;;;92.63;27.33;;;;;;;;;;5083902;28;20461;-65
2021/12/27 11:52:17;;;;;;;118.78;28.58;;;;;;;;;;5090323;28;20067;-65
2021/12/27 11:54:51;;;;;;;103.53;28.67;;;;;;;;;;5122284;27;20063;-65
2021/12/27 11:57:36;;;;;;;125.65;30.42;;;;;;;;;;5109623;28;20085;-65
2021/12/27 12:00:23;;;;;;;115.47;28.33;;;;;;;;;;5091105;28;20047;-65
2021/12/27 12:02:56;;;;;;;84.18;28.42;;;;;;;;;;5106429;28;20040;-65
2021/12/27 12:05:39;;;;;;;123.88;30.17;;;;;;;;;;5088821;28;20044;-65
2021/12/27 12:08:06;;;;;;;92.07;28.20;;;;;;;;;;5106719;28;20496;-65
2021/12/27 12:10:32;;;;;;;111.07;31.55;;;;;;;;;;5109520;28;20484;-65
2021/12/27 12:13:33;;;;;;;113.40;32.55;;;;;;;;;;5110059;28;20042;-65
2021/12/27 12:16:07;;;;;;;91.72;27.45;;;;;;;;;;4991830;28;20053;-65
2021/12/27 12:18:33;;;;;;;111.13;31.27;;;;;;;;;;5073937;28;20097;-65
2021/12/27 12:21:00;;;;;;;109.38;30.40;;;;;;;;;;5091811;28;20035;-65
2021/12/27 12:23:26;;;;;;;93.68;29.98;;;;;;;;;;5091594;28;20051;-65
2021/12/27 12:26:00;;;;;;;112.05;31.85;;;;;;;;;;5091191;28;20607;-65
2021/12/27 12:28:26;;;;;;;85.15;28.35;;;;;;;;;;5092280;28;20085;-65
2021/12/27 12:30:53;;;;;;;115.88;31.92;;;;;;;;;;5090877;28;20130;-65
2021/12/27 12:33:20;;;;;;;98.25;30.08;;;;;;;;;;5092342;28;20402;-65
2021/12/27 12:35:50;;;;;;;84.22;29.27;;;;;;;;;;5126250;27;20082;-65
2021/12/27 12:38:21;;;;;;;75.30;27.15;;;;;;;;;;5124732;27;20040;-65
2021/12/27 12:41:06;;;;;;;73.85;28.65;;;;;;;;;;5092729;28;20124;-65
2021/12/27 12:43:43;;;;;;;66.40;24.77;;;;;;;;;;5089566;28;20051;-65
2021/12/27 12:46:17;;;;;;;69.57;26.02;;;;;;;;;;5107966;28;20048;-65
2021/12/27 12:48:43;;;;;;;70.35;26.63;;;;;;;;;;5089900;28;20116;-65
2021/12/27 12:51:10;;;;;;;57.65;25.52;;;;;;;;;;5102491;28;20066;-65
2021/12/27 12:53:36;;;;;;;62.53;27.05;;;;;;;;;;5087450;28;20500;-65
2021/12/27 12:56:04;;;;;;;62.00;24.88;;;;;;;;;;5087343;28;20043;-65
2021/12/27 12:58:37;;;;;;;65.10;27.27;;;;;;;;;;5071389;28;20055;-65
2021/12/27 13:01:09;;;;;;;66.88;26.60;;;;;;;;;;5075687;28;20082;-65
2021/12/27 13:03:35;;;;;;;76.03;28.42;;;;;;;;;;5095092;28;20502;-65
2021/12/27 13:06:03;;;;;;;62.88;25.85;;;;;;;;;;5077265;28;20101;-65
2021/12/27 13:08:29;;;;;;;63.38;24.88;;;;;;;;;;5094520;28;20054;-65
2021/12/27 13:10:57;;;;;;;63.83;24.30;;;;;;;;;;5094188;28;20126;-65
2021/12/27 13:13:23;;;;;;;69.35;27.27;;;;;;;;;;5094489;28;20047;-65
2021/12/27 13:15:53;;;;;;;60.88;25.27;;;;;;;;;;5093271;28;20560;-65
2021/12/27 13:18:24;;;;;;;59.63;23.45;;;;;;;;;;5094554;28;20050;-66
2021/12/27 13:20:54;;;;;;;58.10;23.17;;;;;;;;;;5094380;28;20445;-66
2021/12/27 13:23:21;;;;;;;67.53;24.88;;;;;;;;;;5092846;28;20052;-65
2021/12/27 13:25:58;;;;;;;56.50;23.50;;;;;;;;;;5078025;28;20056;-65
2021/12/27 13:28:27;;;;;;;56.50;22.83;;;;;;;;;;5091686;28;20043;-65
2021/12/27 13:31:10;;;;;;;52.50;21.80;;;;;;;;;;5096807;28;20086;-65
2021/12/27 13:33:40;;;;;;;50.20;21.95;;;;;;;;;;5092780;28;20040;-65
2021/12/27 13:36:10;;;;;;;52.03;22.02;;;;;;;;;;5076402;28;20495;-65
2021/12/27 13:38:41;;;;;;;57.78;22.33;;;;;;;;;;5093950;28;20483;-65
2021/12/27 13:41:09;;;;;;;57.65;21.20;;;;;;;;;;5112106;28;20062;-65
2021/12/27 13:43:47;;;;;;;56.92;22.17;;;;;;;;;;5086517;28;20143;-65
2021/12/27 13:46:15;;;;;;;49.08;20.35;;;;;;;;;;5112469;27;20051;-64
2021/12/27 13:48:41;;;;;;;48.55;19.33;;;;;;;;;;5128737;27;20043;-64
2021/12/27 13:51:08;;;;;;;51.42;22.05;;;;;;;;;;5093861;28;20051;-64
2021/12/27 13:53:34;;;;;;;46.15;19.92;;;;;;;;;;5093292;28;20051;-65
2021/12/27 13:56:08;;;;;;;45.65;20.17;;;;;;;;;;5093647;28;20060;-64
2021/12/27 13:58:37;;;;;;;47.47;20.38;;;;;;;;;;5092207;28;20047;-64
2021/12/27 14:01:08;;;;;;;51.45;21.05;;;;;;;;;;5096913;28;20054;-64
2021/12/27 14:03:35;;;;;;;57.72;21.65;;;;;;;;;;5111256;27;20039;-64
2021/12/27 14:06:03;;;;;;;56.88;22.67;;;;;;;;;;5111437;28;20044;-65
2021/12/27 14:08:30;;;;;;;48.45;19.90;;;;;;;;;;5093736;28;20039;-65
2021/12/27 14:11:01;;;;;;;40.70;19.55;;;;;;;;;;5093561;28;20096;-65
2021/12/27 14:13:43;;;;;;;44.75;20.23;;;;;;;;;;5120121;27;20130;-64
2021/12/27 14:16:23;;;;;;;53.58;21.83;;;;;;;;;;5093694;28;20070;-64
2021/12/27 14:19:04;;;;;;;39.47;18.52;;;;;;;;;;5112221;28;20090;-64
2021/12/27 14:21:31;;;;;;;47.08;20.30;;;;;;;;;;5092109;28;20052;-65